createdAt,value
2018-08-07T00:00:20.587Z,2.40
2018-08-07T00:05:13.853Z,2.50
2018-08-07T00:10:08.434Z,2.60
2018-08-07T00:15:00.987Z,2.63
2018-08-07T00:19:53.652Z,2.00
2018-08-07T00:24:46.177Z,2.40
2018-08-07T00:29:38.787Z,2.40
2018-08-07T00:34:31.395Z,2.03
2018-08-07T00:39:23.947Z,2.37
2018-08-07T00:44:16.552Z,2.17
2018-08-07T00:49:09.147Z,2.10
2018-08-07T00:54:01.886Z,2.20
2018-08-07T00:58:54.525Z,2.30
2018-08-07T01:03:47.130Z,2.50
2018-08-07T01:08:39.771Z,2.73
2018-08-07T01:13:32.393Z,2.60
2018-08-07T01:18:24.991Z,2.63
2018-08-07T01:23:17.587Z,2.43
2018-08-07T01:28:10.199Z,2.47
2018-08-07T01:33:02.839Z,2.47
2018-08-07T01:37:55.405Z,2.40
2018-08-07T01:42:47.988Z,2.40
2018-08-07T01:47:40.793Z,2.37
2018-08-07T01:52:33.452Z,2.60
2018-08-07T01:57:26.069Z,2.40
2018-08-07T02:02:18.672Z,2.40
2018-08-07T02:07:11.570Z,2.50
2018-08-07T02:12:04.194Z,2.30
2018-08-07T02:16:56.858Z,2.40
2018-08-07T02:21:49.456Z,2.63
2018-08-07T02:26:42.099Z,3.03
2018-08-07T02:31:34.731Z,3.10
2018-08-07T02:36:27.294Z,2.67
2018-08-07T02:41:19.911Z,2.83
2018-08-07T02:46:12.505Z,2.80
2018-08-07T02:51:05.089Z,2.80
2018-08-07T02:55:57.715Z,3.40
2018-08-07T03:00:50.394Z,3.00
2018-08-07T03:05:43.021Z,2.60
2018-08-07T03:10:35.655Z,2.87
2018-08-07T03:15:28.541Z,3.13
2018-08-07T03:20:21.103Z,3.00
2018-08-07T03:25:14.328Z,3.00
2018-08-07T03:30:10.594Z,3.23
2018-08-07T03:35:03.607Z,2.83
2018-08-07T03:39:56.214Z,3.33
2018-08-07T03:44:48.803Z,3.10
2018-08-07T03:49:41.463Z,3.17
2018-08-07T03:54:34.052Z,3.50
2018-08-07T03:59:26.652Z,3.73
2018-08-07T04:04:19.265Z,3.40
2018-08-07T04:09:13.862Z,3.83
2018-08-07T04:14:06.764Z,3.63
2018-08-07T04:18:59.375Z,4.00
2018-08-07T04:23:51.952Z,3.70
2018-08-07T04:28:44.630Z,4.10
2018-08-07T04:33:37.318Z,3.97
2018-08-07T04:38:29.992Z,3.80
2018-08-07T04:43:22.574Z,3.80
2018-08-07T04:48:15.259Z,4.03
2018-08-07T04:53:07.872Z,3.80
2018-08-07T04:58:00.625Z,4.43
2018-08-07T05:02:53.186Z,4.37
2018-08-07T05:07:45.870Z,4.23
2018-08-07T05:12:38.448Z,4.20
2018-08-07T05:17:31.106Z,5.27
2018-08-07T05:22:23.717Z,4.63
2018-08-07T05:27:16.667Z,4.47
2018-08-07T05:32:09.222Z,4.20
2018-08-07T05:37:01.861Z,4.57
2018-08-07T05:41:54.362Z,4.07
2018-08-07T05:46:47.082Z,3.57
2018-08-07T05:51:39.610Z,3.60
2018-08-07T05:56:32.193Z,3.10
2018-08-07T06:01:24.831Z,3.13
2018-08-07T06:06:17.576Z,3.13
2018-08-07T06:11:10.102Z,3.30
2018-08-07T06:16:02.726Z,3.30
2018-08-07T06:20:55.317Z,3.20
2018-08-07T06:25:47.817Z,3.30
2018-08-07T06:30:40.403Z,3.30
2018-08-07T06:35:32.994Z,3.37
2018-08-07T06:40:25.635Z,3.03
2018-08-07T06:45:18.458Z,3.30
2018-08-07T06:50:14.672Z,3.63
2018-08-07T06:55:08.118Z,3.23
2018-08-07T07:00:00.770Z,2.90
2018-08-07T07:04:53.350Z,3.27
2018-08-07T07:09:46.033Z,2.90
2018-08-07T07:14:38.636Z,3.20
2018-08-07T07:19:31.247Z,3.50
2018-08-07T07:24:23.857Z,3.10
2018-08-07T07:29:16.720Z,3.23
2018-08-07T07:34:09.368Z,2.80
2018-08-07T07:39:02.103Z,2.90
2018-08-07T07:43:54.735Z,2.73
2018-08-07T07:48:47.310Z,2.70
2018-08-07T07:53:39.970Z,3.07
2018-08-07T07:58:32.619Z,3.10
2018-08-07T08:03:25.172Z,2.70
2018-08-07T08:08:17.873Z,2.70
2018-08-07T08:13:10.434Z,2.70
2018-08-07T08:18:03.606Z,3.00
2018-08-07T08:22:56.212Z,3.07
2018-08-07T08:27:48.899Z,3.03
2018-08-07T08:32:41.811Z,3.00
2018-08-07T08:37:34.586Z,2.67
2018-08-07T08:42:27.211Z,2.63
2018-08-07T08:47:20.001Z,3.10
2018-08-07T08:52:12.526Z,2.80
2018-08-07T08:57:05.159Z,2.70
2018-08-07T09:01:57.763Z,2.47
2018-08-07T09:06:50.431Z,2.87
2018-08-07T09:11:43.049Z,2.73
2018-08-07T09:16:36.031Z,2.77
2018-08-07T09:21:28.571Z,2.50
2018-08-07T09:26:21.188Z,2.50
2018-08-07T09:31:13.729Z,2.40
2018-08-07T09:36:06.340Z,2.60
2018-08-07T09:40:58.971Z,2.23
2018-08-07T09:45:51.545Z,2.83
2018-08-07T09:50:44.081Z,2.40
2018-08-07T09:55:36.794Z,2.50
2018-08-07T10:00:35.056Z,2.70
2018-08-07T10:05:29.049Z,2.70
2018-08-07T10:10:21.906Z,2.20
2018-08-07T10:15:15.021Z,2.77
2018-08-07T10:20:08.905Z,2.67
2018-08-07T10:25:01.687Z,2.70
2018-08-07T10:29:54.185Z,2.73
2018-08-07T10:34:46.887Z,3.03
2018-08-07T10:39:39.490Z,2.70
2018-08-07T10:44:32.129Z,2.87
2018-08-07T10:49:24.791Z,3.13
2018-08-07T10:54:17.530Z,2.80
2018-08-07T10:59:10.270Z,3.23
2018-08-07T11:04:02.906Z,2.60
2018-08-07T11:08:55.506Z,2.80
2018-08-07T11:13:48.173Z,2.90
2018-08-07T11:18:40.695Z,2.93
2018-08-07T11:23:33.298Z,2.87
2018-08-07T11:28:25.971Z,2.83
2018-08-07T11:33:18.631Z,2.50
2018-08-07T11:38:11.266Z,2.83
2018-08-07T11:43:03.807Z,2.70
2018-08-07T11:47:56.541Z,2.53
2018-08-07T11:52:49.194Z,2.90
2018-08-07T11:57:42.168Z,2.53
2018-08-07T12:02:34.887Z,2.20
2018-08-07T12:07:27.479Z,2.80
2018-08-07T12:12:20.202Z,2.77
2018-08-07T12:17:12.783Z,2.27
2018-08-07T12:22:05.655Z,2.30
2018-08-07T12:26:58.409Z,2.60
2018-08-07T12:31:51.019Z,2.13
2018-08-07T12:36:43.647Z,2.40
2018-08-07T12:41:36.239Z,2.33
2018-08-07T12:46:29.055Z,2.30
2018-08-07T12:51:21.803Z,2.20
2018-08-07T12:56:14.418Z,2.40
2018-08-07T13:01:07.051Z,2.80
2018-08-07T13:05:59.738Z,2.97
2018-08-07T13:10:52.372Z,2.43
2018-08-07T13:15:45.001Z,2.80
2018-08-07T13:20:37.574Z,2.50
2018-08-07T13:25:30.254Z,2.50
2018-08-07T13:30:26.203Z,2.77
2018-08-07T13:35:18.955Z,2.73
2018-08-07T13:40:14.058Z,2.73
2018-08-07T13:45:09.515Z,2.70
2018-08-07T13:50:02.310Z,3.00
2018-08-07T13:54:54.850Z,2.80
2018-08-07T13:59:47.370Z,3.20
2018-08-07T14:04:40.011Z,3.17
2018-08-07T14:09:32.668Z,2.90
2018-08-07T14:14:25.279Z,2.73
2018-08-07T14:19:17.809Z,3.33
2018-08-07T14:24:10.421Z,3.10
2018-08-07T14:29:03.246Z,3.30
2018-08-07T14:33:55.811Z,2.90
2018-08-07T14:38:48.394Z,3.00
2018-08-07T14:43:40.956Z,3.20
2018-08-07T14:48:33.589Z,3.00
2018-08-07T14:53:26.527Z,3.05
2018-08-07T14:58:19.506Z,3.13
2018-08-07T15:03:12.193Z,3.33
2018-08-07T15:08:05.506Z,3.37
2018-08-07T15:12:58.546Z,3.42
2018-08-07T15:17:51.242Z,3.60
2018-08-07T15:22:45.462Z,3.65
2018-08-07T15:27:38.397Z,3.60
2018-08-07T15:32:31.028Z,3.60
2018-08-07T15:37:23.692Z,3.50
2018-08-07T15:42:16.377Z,3.98
2018-08-07T15:47:09.135Z,3.90
2018-08-07T15:52:01.771Z,3.75
2018-08-07T15:56:54.464Z,4.30
2018-08-07T16:01:46.974Z,3.70
2018-08-07T16:06:39.616Z,3.93
2018-08-07T16:11:32.295Z,3.50
2018-08-07T16:16:24.949Z,3.60
2018-08-07T16:21:56.492Z,4.00
2018-08-07T16:26:49.256Z,3.80
2018-08-07T16:31:41.927Z,4.50
2018-08-07T16:36:34.490Z,3.93
2018-08-07T16:41:27.115Z,3.97
2018-08-07T16:46:19.758Z,4.03
2018-08-07T16:51:12.469Z,4.30
2018-08-07T16:56:05.070Z,4.07
2018-08-07T17:00:57.706Z,4.10
2018-08-07T17:05:50.293Z,4.23
2018-08-07T17:10:42.897Z,4.43
2018-08-07T17:15:35.494Z,4.53
2018-08-07T17:20:28.110Z,3.90
2018-08-07T17:25:22.043Z,4.10
2018-08-07T17:30:17.721Z,4.47
2018-08-07T17:35:16.027Z,4.33
2018-08-07T17:40:11.109Z,3.93
2018-08-07T17:45:04.846Z,4.17
2018-08-07T17:49:57.458Z,4.30
2018-08-07T17:54:50.014Z,4.67
2018-08-07T17:59:42.650Z,4.03
2018-08-07T18:04:35.388Z,4.10
2018-08-07T18:09:27.950Z,3.87
2018-08-07T18:14:20.475Z,4.20
2018-08-07T18:19:13.161Z,4.20
2018-08-07T18:24:05.693Z,4.50
2018-08-07T18:28:58.223Z,4.27
2018-08-07T18:33:51.022Z,5.57
2018-08-07T18:38:43.769Z,5.37
2018-08-07T18:43:36.417Z,5.37
2018-08-07T18:48:29.030Z,5.00
2018-08-07T18:53:21.599Z,4.27
2018-08-07T18:58:14.276Z,4.40
2018-08-07T19:03:06.855Z,4.10
2018-08-07T19:07:59.498Z,4.80
2018-08-07T19:12:52.059Z,4.90
2018-08-07T19:17:44.667Z,4.83
2018-08-07T19:22:37.272Z,4.60
2018-08-07T19:27:29.935Z,4.27
2018-08-07T19:32:22.592Z,4.47
2018-08-07T19:37:15.227Z,4.57
2018-08-07T19:42:08.224Z,4.10
2018-08-07T19:47:00.802Z,4.63
2018-08-07T19:51:53.502Z,4.30
2018-08-07T19:56:46.217Z,3.90
2018-08-07T20:01:39.007Z,4.37
2018-08-07T20:06:31.604Z,4.17
2018-08-07T20:11:24.176Z,4.90
2018-08-07T20:16:16.866Z,4.30
2018-08-07T20:21:09.806Z,4.33
2018-08-07T20:26:02.551Z,4.20
2018-08-07T20:30:55.217Z,4.40
2018-08-07T20:35:47.686Z,4.27
2018-08-07T20:40:40.255Z,3.97
2018-08-07T20:45:32.807Z,4.00
2018-08-07T20:50:26.073Z,4.50
2018-08-07T20:55:18.741Z,4.10
2018-08-07T21:00:14.944Z,4.40
2018-08-07T21:05:07.684Z,3.83
2018-08-07T21:10:00.285Z,4.43
2018-08-07T21:14:52.812Z,4.40
2018-08-07T21:19:45.492Z,4.23
2018-08-07T21:24:38.093Z,3.77
2018-08-07T21:29:30.768Z,4.17
2018-08-07T21:34:23.362Z,3.50
2018-08-07T21:39:16.013Z,3.70
2018-08-07T21:44:08.617Z,3.87
2018-08-07T21:49:01.231Z,3.73
2018-08-07T21:53:53.813Z,3.70
2018-08-07T21:58:46.449Z,3.40
2018-08-07T22:03:39.050Z,3.67
2018-08-07T22:08:31.609Z,3.80
2018-08-07T22:13:24.199Z,3.23
2018-08-07T22:18:16.888Z,3.63
2018-08-07T22:23:09.539Z,3.77
2018-08-07T22:28:02.139Z,3.33
2018-08-07T22:32:54.637Z,3.30
2018-08-07T22:37:47.116Z,3.10
2018-08-07T22:42:39.718Z,2.87
2018-08-07T22:47:32.315Z,3.33
2018-08-07T22:52:25.083Z,3.20
2018-08-07T22:57:17.656Z,3.30
2018-08-07T23:02:10.309Z,2.83
2018-08-07T23:07:02.962Z,3.10
2018-08-07T23:11:55.558Z,3.53
2018-08-07T23:16:48.239Z,3.30
2018-08-07T23:21:40.840Z,3.30
2018-08-07T23:26:33.377Z,3.10
2018-08-07T23:31:25.900Z,3.33
2018-08-07T23:36:18.444Z,3.33
2018-08-07T23:41:11.195Z,3.20
2018-08-07T23:46:03.854Z,3.00
2018-08-07T23:50:56.377Z,3.13
2018-08-07T23:55:48.953Z,3.33
